Time;durP1;ratioP1;P1;durP2;ratioP2;P2;SDS_P1;SDS_P2;PMS_P1;PMS_P2;Temp;Humidity;BMP_temperature;BMP_pressure;BME280_temperature;BME280_humidity;BME280_pressure;Samples;Min_cycle;Max_cycle;Signal;HPM_P1;HPM_P2
2022/05/31 00:02:25;;;;;;;0.50;0.50;;;8.90;99.90;;;;;;5095963;28;20126;-70
2022/05/31 00:04:51;;;;;;;0.40;0.40;;;8.90;99.90;;;;;;5111851;28;20459;-73
2022/05/31 00:07:17;;;;;;;6.45;1.90;;;9.00;99.90;;;;;;5095799;28;20040;-72
2022/05/31 00:09:44;;;;;;;0.50;0.50;;;9.00;99.90;;;;;;5095776;28;20040;-70
2022/05/31 00:12:10;;;;;;;0.50;0.50;;;9.00;99.90;;;;;;5095566;28;20092;-70
2022/05/31 00:14:36;;;;;;;0.40;0.40;;;9.10;99.90;;;;;;5095771;28;20536;-74
2022/05/31 00:17:02;;;;;;;0.40;0.40;;;9.20;99.90;;;;;;5095768;28;20127;-74
2022/05/31 00:19:28;;;;;;;0.50;0.50;;;9.20;99.90;;;;;;5095771;28;20040;-71
2022/05/31 00:22:08;;;;;;;0.40;0.40;;;9.20;99.90;;;;;;5095558;28;20547;-73
2022/05/31 00:24:34;;;;;;;0.40;0.40;;;9.20;99.90;;;;;;5095568;28;20087;-72
2022/05/31 00:27:00;;;;;;;0.40;0.40;;;9.20;99.90;;;;;;5095826;28;20123;-72
2022/05/31 00:29:26;;;;;;;0.50;0.50;;;9.30;99.90;;;;;;5095345;28;20582;-70
2022/05/31 00:31:52;;;;;;;0.40;0.40;;;9.30;99.90;;;;;;5095506;28;20040;-75
2022/05/31 00:34:18;;;;;;;0.50;0.50;;;9.30;99.90;;;;;;5095369;28;20360;-70
2022/05/31 00:36:48;;;;;;;0.40;0.40;;;9.30;99.90;;;;;;5095363;28;20043;-72
2022/05/31 00:39:14;;;;;;;0.40;0.40;;;9.30;99.90;;;;;;5095285;28;20044;-73
2022/05/31 00:41:40;;;;;;;0.50;0.50;;;9.30;99.90;;;;;;5095375;28;20047;-75
2022/05/31 00:44:12;;;;;;;0.40;0.40;;;9.30;99.90;;;;;;5095245;28;20047;-72
2022/05/31 00:46:46;;;;;;;0.40;0.40;;;9.30;99.90;;;;;;5095346;28;20074;-72
2022/05/31 00:49:14;;;;;;;0.40;0.40;;;9.30;99.90;;;;;;5094979;28;20083;-75
2022/05/31 00:51:50;;;;;;;0.40;0.40;;;9.30;99.90;;;;;;5095460;28;20044;-71
2022/05/31 00:54:19;;;;;;;0.40;0.40;;;9.30;99.90;;;;;;5095372;28;20036;-69
2022/05/31 00:56:47;;;;;;;0.40;0.40;;;9.30;99.90;;;;;;5095044;28;20139;-73
2022/05/31 00:59:23;;;;;;;0.40;0.40;;;9.30;99.90;;;;;;5094892;28;20040;-69
2022/05/31 01:01:56;;;;;;;0.40;0.40;;;9.30;99.90;;;;;;5094849;28;20076;-73
2022/05/31 01:04:31;;;;;;;0.50;0.50;;;9.30;99.90;;;;;;5093630;28;20479;-71
2022/05/31 01:06:58;;;;;;;0.40;0.40;;;9.30;99.90;;;;;;5094786;28;20040;-74
2022/05/31 01:09:23;;;;;;;;;;;9.40;99.90;;;;;;5095109;28;20406;-73
2022/05/31 01:11:49;;;;;;;0.40;0.40;;;9.30;99.90;;;;;;5094346;28;19920;-73
2022/05/31 01:14:15;;;;;;;0.50;0.50;;;9.40;99.90;;;;;;5094592;28;20484;-74
2022/05/31 01:17:05;;;;;;;0.50;0.50;;;9.40;99.90;;;;;;5094572;28;20079;-71
2022/05/31 01:22:16;;;;;;;0.40;0.40;;;9.40;99.90;;;;;;5095417;28;20044;-71
2022/05/31 01:24:54;;;;;;;0.40;0.40;;;9.40;99.90;;;;;;5094465;28;20047;-73
2022/05/31 01:27:31;;;;;;;0.47;0.47;;;9.40;99.90;;;;;;5095660;28;20052;-74
2022/05/31 01:29:58;;;;;;;0.50;0.50;;;9.40;99.90;;;;;;5095241;28;20046;-73
2022/05/31 01:32:24;;;;;;;0.50;0.50;;;9.50;99.90;;;;;;5094981;28;20044;-70
2022/05/31 01:35:06;;;;;;;0.40;0.40;;;9.50;99.90;;;;;;5095476;28;20048;-72
2022/05/31 01:38:01;;;;;;;0.40;0.40;;;9.50;99.90;;;;;;5095781;28;20126;-75
2022/05/31 01:40:37;;;;;;;0.50;0.50;;;9.50;99.90;;;;;;5093459;28;20055;-75
2022/05/31 01:43:02;;;;;;;0.50;0.50;;;9.50;99.90;;;;;;5094636;28;20501;-72
2022/05/31 01:45:35;;;;;;;0.40;0.40;;;9.50;99.90;;;;;;5095523;28;20048;-72
2022/05/31 01:48:04;;;;;;;0.40;0.40;;;9.50;99.90;;;;;;5099081;28;20044;-70
2022/05/31 01:50:31;;;;;;;0.50;0.50;;;9.40;99.90;;;;;;5096132;28;20048;-72
2022/05/31 01:52:57;;;;;;;0.40;0.40;;;9.40;99.90;;;;;;5094206;28;20058;-71
2022/05/31 01:55:24;;;;;;;0.40;0.40;;;9.40;99.90;;;;;;5094051;28;20044;-72
2022/05/31 01:57:55;;;;;;;0.50;0.50;;;9.40;99.90;;;;;;5094065;28;20055;-73
2022/05/31 02:00:21;;;;;;;0.40;0.40;;;9.30;99.90;;;;;;5094764;28;20048;-70
2022/05/31 02:02:51;;;;;;;0.50;0.50;;;9.30;99.90;;;;;;5094105;28;20122;-70
2022/05/31 02:05:18;;;;;;;0.40;0.40;;;9.30;99.90;;;;;;5094195;28;20050;-73
2022/05/31 02:08:02;;;;;;;0.50;0.50;;;9.30;99.90;;;;;;5096580;28;20480;-70
2022/05/31 02:10:29;;;;;;;0.40;0.40;;;9.20;99.90;;;;;;5095147;28;20052;-74
2022/05/31 02:12:55;;;;;;;0.50;0.50;;;9.20;99.90;;;;;;5094280;28;20048;-70
2022/05/31 02:15:22;;;;;;;0.50;0.50;;;9.20;99.90;;;;;;5093838;28;20464;-75
2022/05/31 02:17:48;;;;;;;0.45;0.45;;;9.20;99.90;;;;;;5093859;28;20056;-70
2022/05/31 02:20:14;;;;;;;0.40;0.40;;;9.20;99.90;;;;;;5093820;28;20032;-71
2022/05/31 02:22:40;;;;;;;0.50;0.50;;;9.20;99.90;;;;;;5093789;28;20495;-71
2022/05/31 02:25:06;;;;;;;0.50;0.50;;;9.20;99.90;;;;;;5093768;28;20098;-73
2022/05/31 02:27:32;;;;;;;0.50;0.50;;;9.20;99.90;;;;;;5093637;28;20044;-71
2022/05/31 02:29:57;;;;;;;0.40;0.40;;;9.10;99.90;;;;;;5093626;28;20126;-71
2022/05/31 02:32:23;;;;;;;0.40;0.40;;;9.10;99.90;;;;;;5093406;28;20048;-71
2022/05/31 02:34:50;;;;;;;0.50;0.50;;;9.10;99.90;;;;;;5093683;28;20048;-70
2022/05/31 02:37:16;;;;;;;;;;;9.10;99.90;;;;;;5094230;28;20059;-73
2022/05/31 02:39:42;;;;;;;0.50;0.50;;;9.10;99.90;;;;;;5093528;28;19920;-73
2022/05/31 02:42:08;;;;;;;0.40;0.40;;;9.10;99.90;;;;;;5094204;28;20097;-72
2022/05/31 02:44:34;;;;;;;0.40;0.40;;;9.10;99.90;;;;;;5093603;28;20044;-73
2022/05/31 02:47:00;;;;;;;0.47;0.47;;;9.10;99.90;;;;;;5093601;28;20036;-72
2022/05/31 02:49:25;;;;;;;0.50;0.50;;;9.10;99.90;;;;;;5093811;28;20452;-72
2022/05/31 02:51:51;;;;;;;0.50;0.50;;;9.10;99.90;;;;;;5093584;28;20097;-73
2022/05/31 02:54:18;;;;;;;0.50;0.50;;;9.10;99.90;;;;;;5093413;28;20047;-70
2022/05/31 02:56:46;;;;;;;0.40;0.40;;;9.10;99.90;;;;;;5093788;28;20052;-73
2022/05/31 02:59:11;;;;;;;0.40;0.40;;;9.10;99.90;;;;;;5093829;28;20046;-73
2022/05/31 03:01:39;;;;;;;0.50;0.50;;;9.10;99.90;;;;;;5095442;28;20608;-71
2022/05/31 03:04:06;;;;;;;0.50;0.50;;;9.10;99.90;;;;;;5097454;28;20412;-71
2022/05/31 03:06:31;;;;;;;0.45;0.45;;;9.10;99.90;;;;;;5097196;28;20036;-73
2022/05/31 03:08:58;;;;;;;0.40;0.40;;;9.10;99.90;;;;;;5097108;28;20580;-71
2022/05/31 03:11:35;;;;;;;0.50;0.50;;;9.10;99.90;;;;;;5096985;28;20062;-71
2022/05/31 03:14:04;;;;;;;;;;;9.10;99.90;;;;;;5097461;28;20044;-72
2022/05/31 03:16:31;;;;;;;0.40;0.40;;;9.10;99.90;;;;;;5096927;28;19920;-73
2022/05/31 03:19:02;;;;;;;0.40;0.40;;;9.10;99.90;;;;;;5097118;28;20423;-70
2022/05/31 03:21:36;;;;;;;0.40;0.40;;;9.10;99.90;;;;;;5095979;28;20087;-71
2022/05/31 03:24:08;;;;;;;0.40;0.40;;;9.10;99.90;;;;;;5097494;28;20062;-70
2022/05/31 03:26:35;;;;;;;0.50;0.50;;;9.20;99.90;;;;;;5097002;28;20048;-72
2022/05/31 03:29:03;;;;;;;0.43;0.43;;;9.10;99.90;;;;;;5096891;28;20055;-72
2022/05/31 03:31:29;;;;;;;0.45;0.45;;;9.10;99.90;;;;;;5096799;28;20051;-72
2022/05/31 03:33:55;;;;;;;0.50;0.50;;;9.10;99.90;;;;;;5096759;28;20040;-73
2022/05/31 03:36:20;;;;;;;0.50;0.50;;;9.20;99.90;;;;;;5096459;28;20040;-73
2022/05/31 03:38:46;;;;;;;0.50;0.50;;;9.20;99.90;;;;;;5096930;28;20092;-73
2022/05/31 03:41:11;;;;;;;0.50;0.50;;;9.20;99.90;;;;;;5096820;28;20040;-70
2022/05/31 03:43:38;;;;;;;0.47;0.47;;;9.20;99.90;;;;;;5096381;28;20050;-72
2022/05/31 03:46:03;;;;;;;0.47;0.47;;;9.20;99.90;;;;;;5096373;28;20131;-73
2022/05/31 03:48:29;;;;;;;0.47;0.47;;;9.20;99.90;;;;;;5096468;28;20177;-74
2022/05/31 03:51:03;;;;;;;0.60;0.60;;;9.20;99.90;;;;;;5096046;28;20036;-71
2022/05/31 03:53:29;;;;;;;0.50;0.50;;;9.30;99.90;;;;;;5096256;28;20108;-72
2022/05/31 03:55:54;;;;;;;0.40;0.40;;;9.30;99.90;;;;;;5096509;28;20506;-75
2022/05/31 03:58:20;;;;;;;0.55;0.55;;;9.30;99.90;;;;;;5096506;28;20075;-73
2022/05/31 04:00:46;;;;;;;0.50;0.50;;;9.40;99.90;;;;;;5096185;28;20037;-72
2022/05/31 04:03:12;;;;;;;0.50;0.50;;;9.40;99.90;;;;;;5096021;28;20043;-70
2022/05/31 04:05:38;;;;;;;0.60;0.60;;;9.40;99.90;;;;;;5095984;28;20051;-73
2022/05/31 04:08:08;;;;;;;0.50;0.50;;;9.50;99.90;;;;;;5096181;28;20430;-71
2022/05/31 04:10:34;;;;;;;0.40;0.40;;;9.50;99.90;;;;;;5095425;28;20472;-73
2022/05/31 04:13:00;;;;;;;0.40;0.40;;;9.50;99.90;;;;;;5095559;28;20052;-75
2022/05/31 04:15:27;;;;;;;0.50;0.50;;;9.50;99.90;;;;;;5095717;28;20475;-73
2022/05/31 04:17:52;;;;;;;0.40;0.40;;;9.60;99.90;;;;;;5095948;28;20040;-75
2022/05/31 04:20:19;;;;;;;0.40;0.40;;;9.60;99.90;;;;;;5095626;28;20048;-71
2022/05/31 04:22:45;;;;;;;0.40;0.40;;;9.60;99.90;;;;;;5095575;28;20071;-75
2022/05/31 04:25:11;;;;;;;0.40;0.40;;;9.60;99.90;;;;;;5095882;28;20040;-72
2022/05/31 04:27:36;;;;;;;0.50;0.50;;;9.60;99.90;;;;;;5095550;28;20083;-72
2022/05/31 04:30:03;;;;;;;0.50;0.50;;;9.70;99.90;;;;;;5095455;28;20541;-71
2022/05/31 04:32:28;;;;;;;1.02;0.93;;;9.70;99.90;;;;;;5095497;28;20044;-71
2022/05/31 04:34:54;;;;;;;0.40;0.40;;;9.80;99.90;;;;;;5095377;28;20055;-72
2022/05/31 04:37:20;;;;;;;0.40;0.40;;;9.80;99.90;;;;;;5095341;28;20050;-68
2022/05/31 04:39:46;;;;;;;0.40;0.40;;;9.80;99.90;;;;;;5095674;28;20048;-73
2022/05/31 04:42:11;;;;;;;0.43;0.43;;;9.90;99.90;;;;;;5095252;28;20055;-71
2022/05/31 04:44:38;;;;;;;0.40;0.40;;;9.90;99.90;;;;;;5095542;28;20381;-71
2022/05/31 04:47:05;;;;;;;0.40;0.40;;;9.90;99.90;;;;;;5095220;28;20096;-69
2022/05/31 04:49:30;;;;;;;;;;;9.90;99.90;;;;;;5095455;28;20036;-74
2022/05/31 04:51:56;;;;;;;0.57;0.57;;;9.90;99.90;;;;;;5094745;28;20050;-72
2022/05/31 04:54:24;;;;;;;0.40;0.40;;;9.90;99.90;;;;;;5094661;28;20464;-73
2022/05/31 04:56:50;;;;;;;0.68;0.55;;;9.90;99.90;;;;;;5094994;28;20044;-72
2022/05/31 04:59:17;;;;;;;0.45;0.45;;;9.90;99.90;;;;;;5094907;28;20472;-73
2022/05/31 05:01:43;;;;;;;0.40;0.40;;;9.90;99.90;;;;;;5094874;28;20446;-71
2022/05/31 05:04:11;;;;;;;0.40;0.40;;;10.00;99.90;;;;;;5094867;28;20071;-70
2022/05/31 05:06:37;;;;;;;0.40;0.40;;;10.00;99.90;;;;;;5094781;28;20131;-70
2022/05/31 05:09:03;;;;;;;0.50;0.50;;;10.00;99.90;;;;;;5094728;28;20484;-73
2022/05/31 05:11:31;;;;;;;0.45;0.45;;;10.00;99.90;;;;;;5094488;28;20055;-70
2022/05/31 05:13:57;;;;;;;0.50;0.50;;;10.00;99.90;;;;;;5094739;28;20127;-70
2022/05/31 05:16:23;;;;;;;0.40;0.40;;;10.10;99.90;;;;;;5094671;28;20127;-71
2022/05/31 05:18:49;;;;;;;0.40;0.40;;;10.10;99.90;;;;;;5094583;28;20097;-71
2022/05/31 05:21:16;;;;;;;0.50;0.50;;;10.10;99.90;;;;;;5094512;28;20131;-75
2022/05/31 05:23:41;;;;;;;0.40;0.40;;;10.10;99.90;;;;;;5094199;28;20391;-72
2022/05/31 05:26:08;;;;;;;0.40;0.40;;;10.20;99.90;;;;;;5093945;28;20052;-73
2022/05/31 05:31:19;;;;;;;0.47;0.47;;;10.20;99.90;;;;;;5094285;28;20060;-74
2022/05/31 05:33:45;;;;;;;;;;;10.20;99.90;;;;;;5094691;28;20054;-73
2022/05/31 05:36:10;;;;;;;0.50;0.50;;;10.20;99.90;;;;;;5094701;28;20026;-70
2022/05/31 05:38:36;;;;;;;0.40;0.40;;;10.20;99.90;;;;;;5110740;28;20055;-71
2022/05/31 05:41:01;;;;;;;0.40;0.40;;;10.30;99.90;;;;;;5094127;28;20043;-73
2022/05/31 05:43:27;;;;;;;0.40;0.40;;;10.30;99.90;;;;;;5094100;28;20131;-71
2022/05/31 05:45:53;;;;;;;0.45;0.45;;;10.30;99.90;;;;;;5094071;28;20126;-71
2022/05/31 05:48:18;;;;;;;0.45;0.45;;;10.40;99.90;;;;;;5094135;28;20044;-75
2022/05/31 05:50:44;;;;;;;0.40;0.40;;;10.50;99.90;;;;;;5094024;28;20036;-73
2022/05/31 05:53:10;;;;;;;0.40;0.40;;;10.50;99.90;;;;;;5094134;28;20062;-72
2022/05/31 05:55:37;;;;;;;0.40;0.40;;;10.60;99.90;;;;;;5094262;28;20036;-75
2022/05/31 05:58:06;;;;;;;0.60;0.60;;;10.60;99.90;;;;;;5094089;28;20040;-71
2022/05/31 06:00:32;;;;;;;0.40;0.40;;;10.70;99.90;;;;;;5093955;28;20055;-73
2022/05/31 06:03:07;;;;;;;0.40;0.40;;;10.80;99.90;;;;;;5093958;28;20048;-75
2022/05/31 06:05:33;;;;;;;0.40;0.40;;;10.90;99.90;;;;;;5093860;28;20079;-73
2022/05/31 06:08:13;;;;;;;0.43;0.43;;;11.00;99.90;;;;;;5092607;28;20051;-71
2022/05/31 06:10:44;;;;;;;0.43;0.43;;;11.10;99.90;;;;;;5093427;28;20056;-74
2022/05/31 06:13:19;;;;;;;0.40;0.40;;;11.20;99.90;;;;;;5075724;28;20040;-71
2022/05/31 06:15:50;;;;;;;0.65;0.65;;;11.30;99.90;;;;;;5094136;28;20122;-72
2022/05/31 06:18:19;;;;;;;1.35;1.13;;;11.40;99.90;;;;;;5093792;28;20040;-69
2022/05/31 06:20:50;;;;;;;0.50;0.50;;;11.60;99.90;;;;;;5093923;28;20093;-72
2022/05/31 06:23:16;;;;;;;0.52;0.52;;;11.60;99.90;;;;;;5093728;28;20040;-72
2022/05/31 06:25:41;;;;;;;0.60;0.60;;;11.70;99.90;;;;;;5093617;28;20487;-73
2022/05/31 06:28:08;;;;;;;0.65;0.57;;;11.90;99.90;;;;;;5093842;28;20055;-71
2022/05/31 06:30:33;;;;;;;0.40;0.40;;;12.10;99.90;;;;;;5093593;28;20091;-70
2022/05/31 06:32:59;;;;;;;1.13;1.05;;;12.50;99.90;;;;;;5092451;28;20052;-73
2022/05/31 06:35:24;;;;;;;0.40;0.40;;;12.80;99.90;;;;;;5095572;28;20036;-70
2022/05/31 06:37:50;;;;;;;0.40;0.40;;;13.10;99.90;;;;;;5097768;28;20093;-75
2022/05/31 06:40:16;;;;;;;1.20;1.10;;;13.30;99.90;;;;;;5097627;28;20036;-72
2022/05/31 06:42:41;;;;;;;0.50;0.50;;;13.30;99.90;;;;;;5097982;28;20043;-73
2022/05/31 06:45:07;;;;;;;0.30;0.30;;;13.30;99.90;;;;;;5097608;28;20047;-73
2022/05/31 06:47:33;;;;;;;0.68;0.68;;;13.40;99.90;;;;;;5097586;28;20123;-72
2022/05/31 06:49:58;;;;;;;0.40;0.40;;;13.70;99.90;;;;;;5096339;28;20040;-71
2022/05/31 06:57:53;;;;;;;0.50;0.47;;;14.40;99.90;;;;;;5097611;28;20083;-73
2022/05/31 07:00:20;;;;;;;0.50;0.50;;;14.50;99.90;;;;;;5097261;28;20076;-73
2022/05/31 07:02:46;;;;;;;0.40;0.40;;;14.60;99.90;;;;;;5097212;28;20044;-75
2022/05/31 07:05:13;;;;;;;0.40;0.40;;;14.60;99.90;;;;;;5097163;28;20059;-74
2022/05/31 07:07:39;;;;;;;0.40;0.40;;;14.60;99.90;;;;;;5097132;28;20044;-73
2022/05/31 07:10:06;;;;;;;;;;;14.70;99.90;;;;;;5097635;28;20480;-74
2022/05/31 07:12:32;;;;;;;0.30;0.30;;;14.70;99.90;;;;;;5096998;28;19927;-71
2022/05/31 07:14:58;;;;;;;0.40;0.40;;;14.90;99.90;;;;;;5097006;28;20048;-73
2022/05/31 07:17:24;;;;;;;0.40;0.40;;;15.00;99.90;;;;;;5097130;28;20657;-70
2022/05/31 07:19:50;;;;;;;0.40;0.40;;;15.00;99.90;;;;;;5096857;28;20469;-74
2022/05/31 07:22:16;;;;;;;0.40;0.40;;;15.10;99.90;;;;;;5096830;28;20044;-73
2022/05/31 07:24:42;;;;;;;0.30;0.30;;;15.20;99.90;;;;;;5097153;28;20040;-70
2022/05/31 07:27:08;;;;;;;0.40;0.40;;;15.30;99.90;;;;;;5096644;28;20052;-72
2022/05/31 07:29:33;;;;;;;0.30;0.30;;;15.50;99.90;;;;;;5096605;28;20149;-72
2022/05/31 07:32:00;;;;;;;0.53;0.53;;;15.50;99.90;;;;;;5096607;28;20047;-71
2022/05/31 07:34:26;;;;;;;0.38;0.38;;;15.80;99.90;;;;;;5096594;28;20040;-71
2022/05/31 07:36:53;;;;;;;0.30;0.30;;;15.90;99.90;;;;;;5096625;28;20465;-73
2022/05/31 07:39:20;;;;;;;0.30;0.30;;;16.10;99.90;;;;;;5096510;28;20036;-73
2022/05/31 07:41:46;;;;;;;0.30;0.30;;;16.10;99.90;;;;;;5096439;28;20468;-71
2022/05/31 07:44:13;;;;;;;0.57;0.57;;;16.00;99.90;;;;;;5096402;28;20408;-74
2022/05/31 07:46:40;;;;;;;0.40;0.40;;;15.90;99.90;;;;;;5095546;28;20426;-73
2022/05/31 07:49:05;;;;;;;0.30;0.30;;;16.00;99.90;;;;;;5095980;28;20373;-75
2022/05/31 07:51:31;;;;;;;0.40;0.40;;;16.00;99.90;;;;;;5095913;28;20059;-74
2022/05/31 07:53:58;;;;;;;0.30;0.30;;;16.20;99.90;;;;;;5096311;28;20391;-75
2022/05/31 07:56:24;;;;;;;0.50;0.50;;;16.30;99.70;;;;;;5096057;28;20289;-74
2022/05/31 07:58:50;;;;;;;0.30;0.30;;;16.30;99.80;;;;;;5096161;28;20475;-74
2022/05/31 08:01:18;;;;;;;0.30;0.30;;;16.50;99.90;;;;;;5096179;28;20040;-74
2022/05/31 08:03:44;;;;;;;0.40;0.40;;;16.60;99.90;;;;;;5095780;28;20510;-72
2022/05/31 08:06:13;;;;;;;0.30;0.30;;;16.70;99.90;;;;;;5096050;28;20048;-73
2022/05/31 08:08:39;;;;;;;0.30;0.30;;;17.00;99.50;;;;;;5095927;28;20290;-74
2022/05/31 08:11:14;;;;;;;0.30;0.30;;;17.10;96.70;;;;;;5095739;28;20137;-71
2022/05/31 08:13:40;;;;;;;0.40;0.40;;;17.00;97.00;;;;;;5095895;28;20055;-71
2022/05/31 08:16:07;;;;;;;0.30;0.30;;;17.10;96.10;;;;;;5095960;28;20572;-74
2022/05/31 08:18:34;;;;;;;0.80;0.43;;;17.20;95.90;;;;;;5095671;28;20044;-75
2022/05/31 08:21:18;;;;;;;0.30;0.30;;;17.30;95.70;;;;;;5095762;28;20086;-72
2022/05/31 08:23:44;;;;;;;0.40;0.40;;;17.40;97.60;;;;;;5095720;28;20040;-71
2022/05/31 08:26:10;;;;;;;0.40;0.40;;;17.50;96.20;;;;;;5095624;28;20383;-72
2022/05/31 08:28:36;;;;;;;0.73;0.40;;;17.50;95.10;;;;;;5095588;28;20044;-72
2022/05/31 08:31:10;;;;;;;0.30;0.30;;;17.50;95.40;;;;;;5095125;28;20404;-71
2022/05/31 08:33:35;;;;;;;3.80;0.77;;;17.30;95.70;;;;;;5095887;28;20052;-71
2022/05/31 08:36:01;;;;;;;0.30;0.30;;;17.30;95.90;;;;;;5095400;28;20438;-71
2022/05/31 08:38:27;;;;;;;0.30;0.30;;;17.30;95.90;;;;;;5095417;28;20050;-73
2022/05/31 08:41:07;;;;;;;0.20;0.20;;;17.40;95.20;;;;;;5095395;28;20047;-73
2022/05/31 08:43:35;;;;;;;0.30;0.30;;;17.40;95.00;;;;;;5095153;28;20047;-71
2022/05/31 08:46:07;;;;;;;0.30;0.30;;;17.50;95.20;;;;;;5095204;28;20044;-72
2022/05/31 08:48:38;;;;;;;0.68;0.68;;;17.50;95.10;;;;;;5095568;28;20133;-71
2022/05/31 08:57:08;;;;;;;0.45;0.45;;;18.00;93.60;;;;;;5095052;28;20044;-71
2022/05/31 08:59:40;;;;;;;0.30;0.30;;;18.10;93.90;;;;;;5094165;28;20086;-72
2022/05/31 09:02:19;;;;;;;0.30;0.30;;;18.20;93.80;;;;;;5095029;28;20090;-73
2022/05/31 09:04:53;;;;;;;0.30;0.30;;;18.10;93.10;;;;;;5094907;28;20597;-73
2022/05/31 09:07:30;;;;;;;0.30;0.30;;;17.90;91.80;;;;;;5095225;28;20044;-74
2022/05/31 09:10:02;;;;;;;0.65;0.65;;;17.90;91.40;;;;;;5094920;28;20083;-73
2022/05/31 09:12:41;;;;;;;0.30;0.30;;;17.70;93.50;;;;;;5095046;28;20059;-73
2022/05/31 09:15:21;;;;;;;0.50;0.50;;;17.80;92.90;;;;;;5094601;28;20048;-72
2022/05/31 09:18:05;;;;;;;0.47;0.47;;;17.90;93.20;;;;;;5094686;28;20127;-74
2022/05/31 09:20:30;;;;;;;0.57;0.57;;;17.80;90.50;;;;;;5094840;28;20404;-72
2022/05/31 09:22:56;;;;;;;0.30;0.30;;;17.90;92.40;;;;;;5094469;28;20040;-72
2022/05/31 09:25:22;;;;;;;0.20;0.20;;;18.10;91.40;;;;;;5094459;28;20044;-73
2022/05/31 09:27:49;;;;;;;0.60;0.60;;;18.40;92.00;;;;;;5094351;28;20050;-71
2022/05/31 09:30:27;;;;;;;0.40;0.40;;;18.40;91.10;;;;;;5094123;28;20040;-70
2022/05/31 09:33:23;;;;;;;0.30;0.30;;;18.40;91.20;;;;;;5094611;28;20479;-71
2022/05/31 09:36:02;;;;;;;0.30;0.30;;;18.40;91.00;;;;;;5094322;28;20110;-72
2022/05/31 09:38:45;;;;;;;0.30;0.30;;;18.20;89.30;;;;;;5094109;28;20546;-73
2022/05/31 09:41:18;;;;;;;0.30;0.30;;;18.20;90.20;;;;;;5094249;28;20093;-73
2022/05/31 09:44:02;;;;;;;0.30;0.30;;;18.10;90.50;;;;;;5094293;28;20044;-73
2022/05/31 09:46:31;;;;;;;0.63;0.63;;;18.10;91.20;;;;;;5094115;28;20101;-71
2022/05/31 09:48:58;;;;;;;0.30;0.30;;;17.80;90.30;;;;;;5094106;28;20036;-74
2022/05/31 09:51:37;;;;;;;0.30;0.30;;;17.70;88.20;;;;;;5093980;28;20047;-74
2022/05/31 09:57:07;;;;;;;0.55;0.55;;;17.60;90.30;;;;;;5093979;28;20059;-71
2022/05/31 09:59:43;;;;;;;0.30;0.30;;;17.60;91.30;;;;;;5093985;28;20043;-72
2022/05/31 10:02:26;;;;;;;0.32;0.32;;;17.60;89.10;;;;;;5094072;28;20392;-75
2022/05/31 10:05:21;;;;;;;0.85;0.85;;;17.50;86.80;;;;;;5093895;28;20040;-72
2022/05/31 10:07:47;;;;;;;0.30;0.30;;;17.60;87.60;;;;;;5094275;28;20071;-73
2022/05/31 10:10:16;;;;;;;0.30;0.30;;;17.80;89.80;;;;;;5092922;28;20548;-74
2022/05/31 10:12:57;;;;;;;1.38;0.75;;;18.10;88.70;;;;;;5094083;28;20048;-71
2022/05/31 10:15:40;;;;;;;0.30;0.30;;;18.40;86.60;;;;;;5093846;28;20051;-70
2022/05/31 10:18:09;;;;;;;0.30;0.30;;;18.60;88.00;;;;;;5093791;28;20055;-71
2022/05/31 10:20:35;;;;;;;0.30;0.30;;;18.90;86.70;;;;;;5093726;28;20040;-70
2022/05/31 10:23:03;;;;;;;0.30;0.30;;;19.00;83.30;;;;;;5093531;28;20048;-74
2022/05/31 10:25:43;;;;;;;0.40;0.40;;;19.10;82.10;;;;;;5093542;28;20047;-72
2022/05/31 10:28:37;;;;;;;0.30;0.30;;;19.30;82.50;;;;;;5093706;28;20044;-72
2022/05/31 10:31:20;;;;;;;0.63;0.45;;;19.40;83.20;;;;;;5093999;28;20055;-73
2022/05/31 10:34:00;;;;;;;0.30;0.30;;;19.80;84.70;;;;;;5093532;28;20123;-73
2022/05/31 10:36:32;;;;;;;0.40;0.40;;;20.20;82.10;;;;;;5093552;28;20079;-72
2022/05/31 10:39:11;;;;;;;0.30;0.30;;;20.10;78.60;;;;;;5093889;28;20044;-75
2022/05/31 10:41:39;;;;;;;0.25;0.25;;;20.40;82.00;;;;;;5093743;28;20052;-76
2022/05/31 10:44:28;;;;;;;0.30;0.30;;;20.50;77.20;;;;;;5093253;28;20044;-72
2022/05/31 10:47:07;;;;;;;0.47;0.47;;;20.30;77.60;;;;;;5093429;28;20044;-73
2022/05/31 10:49:35;;;;;;;0.75;0.50;;;20.30;80.20;;;;;;5093149;28;20507;-77
2022/05/31 10:52:05;;;;;;;0.30;0.30;;;19.80;78.00;;;;;;5093471;28;20514;-71
2022/05/31 10:54:42;;;;;;;1.33;1.23;;;19.50;77.80;;;;;;5093241;28;20089;-71
2022/05/31 10:57:20;;;;;;;0.30;0.30;;;19.40;77.10;;;;;;5093461;28;20048;-74
2022/05/31 10:59:47;;;;;;;0.40;0.40;;;19.30;79.30;;;;;;5093898;28;20063;-75
2022/05/31 11:02:33;;;;;;;0.55;0.55;;;19.00;77.20;;;;;;5093321;28;20074;-74
2022/05/31 11:05:08;;;;;;;0.45;0.45;;;18.90;80.50;;;;;;5093508;28;20044;-74
2022/05/31 11:14:00;;;;;;;0.55;0.45;;;18.60;79.60;;;;;;5093205;28;20052;-72
2022/05/31 11:16:48;;;;;;;0.30;0.30;;;18.50;80.60;;;;;;5093661;28;20052;-74
2022/05/31 11:19:50;;;;;;;0.88;0.60;;;18.20;80.90;;;;;;5093191;28;20044;-74
2022/05/31 11:22:19;;;;;;;0.30;0.30;;;18.10;79.80;;;;;;5094740;28;20392;-74
2022/05/31 11:25:10;;;;;;;0.55;0.40;;;18.20;82.30;;;;;;5096476;28;20052;-75
2022/05/31 11:27:42;;;;;;;0.30;0.30;;;18.10;80.30;;;;;;5096759;28;20040;-72
2022/05/31 11:30:12;;;;;;;0.30;0.30;;;18.00;79.50;;;;;;5096613;28;20050;-72
2022/05/31 11:32:56;;;;;;;0.30;0.30;;;18.10;77.80;;;;;;5096664;28;20044;-73
2022/05/31 11:35:24;;;;;;;0.30;0.30;;;18.10;79.30;;;;;;5097059;28;20044;-73
2022/05/31 11:38:03;;;;;;;0.30;0.30;;;18.10;80.20;;;;;;5096882;28;20466;-73
2022/05/31 11:40:58;;;;;;;0.30;0.30;;;18.30;82.20;;;;;;5096704;28;20036;-75
2022/05/31 11:43:55;;;;;;;0.30;0.30;;;18.40;83.30;;;;;;5096409;28;20048;-73
2022/05/31 11:46:47;;;;;;;0.30;0.30;;;18.60;81.40;;;;;;5096713;28;20043;-72
2022/05/31 11:49:35;;;;;;;0.73;0.73;;;18.70;81.10;;;;;;5096446;28;20070;-76
2022/05/31 11:52:26;;;;;;;0.32;0.32;;;18.60;78.10;;;;;;5095938;28;20050;-72
2022/05/31 11:55:28;;;;;;;0.47;0.47;;;18.60;81.80;;;;;;5096596;28;20051;-73
2022/05/31 11:58:15;;;;;;;0.30;0.30;;;18.50;79.80;;;;;;5096144;28;20494;-72
2022/05/31 12:01:21;;;;;;;0.53;0.47;;;18.40;80.10;;;;;;5095891;28;20036;-71
2022/05/31 12:04:11;;;;;;;0.40;0.40;;;18.50;83.40;;;;;;5096058;28;20055;-73
2022/05/31 12:06:54;;;;;;;0.52;0.52;;;18.60;81.10;;;;;;5065934;28;20416;-72
2022/05/31 12:09:45;;;;;;;0.63;0.63;;;18.80;81.90;;;;;;5096300;28;20128;-72
2022/05/31 12:12:30;;;;;;;3.15;0.85;;;19.00;86.90;;;;;;5095931;28;20048;-74
2022/05/31 12:15:20;;;;;;;0.30;0.30;;;19.10;83.70;;;;;;5095823;28;20040;-71
2022/05/31 12:17:54;;;;;;;0.30;0.30;;;19.30;84.10;;;;;;5096182;28;20048;-72
2022/05/31 12:20:33;;;;;;;0.30;0.30;;;19.30;85.50;;;;;;5096022;28;20396;-74
2022/05/31 12:23:28;;;;;;;0.30;0.30;;;19.20;82.80;;;;;;5095821;28;20048;-72
2022/05/31 12:25:56;;;;;;;0.30;0.30;;;19.10;82.80;;;;;;5086407;28;20052;-71
2022/05/31 12:28:30;;;;;;;0.40;0.40;;;19.10;85.90;;;;;;5095080;28;20097;-71
2022/05/31 12:30:58;;;;;;;0.30;0.30;;;19.20;84.70;;;;;;5095460;28;20048;-73
2022/05/31 12:33:39;;;;;;;0.20;0.20;;;19.00;83.30;;;;;;5095232;28;20097;-70
2022/05/31 12:36:05;;;;;;;0.30;0.30;;;19.00;81.70;;;;;;5095940;28;20044;-72
2022/05/31 12:38:54;;;;;;;0.30;0.30;;;19.00;85.00;;;;;;5095076;28;20112;-72
2022/05/31 12:41:41;;;;;;;0.57;0.57;;;19.10;84.00;;;;;;5095364;28;20036;-72
2022/05/31 12:44:25;;;;;;;0.32;0.32;;;19.10;82.50;;;;;;5095027;28;20036;-71
2022/05/31 12:46:51;;;;;;;0.30;0.30;;;19.10;79.80;;;;;;5095094;28;20126;-71
2022/05/31 12:49:17;;;;;;;;;;;18.80;79.80;;;;;;5095505;28;20044;-71
2022/05/31 12:52:08;;;;;;;1.05;0.43;;;18.90;79.40;;;;;;5095193;28;19988;-73
2022/05/31 12:55:04;;;;;;;0.40;0.40;;;18.80;77.70;;;;;;5094976;28;20452;-74
2022/05/31 13:00:35;;;;;;;0.30;0.30;;;18.50;82.10;;;;;;5095078;28;20102;-71
2022/05/31 13:03:04;;;;;;;0.20;0.20;;;18.50;85.30;;;;;;5093615;28;20126;-72
2022/05/31 13:05:39;;;;;;;0.35;0.35;;;18.70;81.90;;;;;;5094918;28;20048;-74
2022/05/31 13:08:15;;;;;;;0.25;0.25;;;18.70;83.50;;;;;;5094888;28;20051;-71
2022/05/31 13:19:34;;;;;;;0.30;0.30;;;18.30;83.50;;;;;;5094725;28;20048;-74
2022/05/31 13:22:03;;;;;;;1.27;1.27;;;18.20;82.20;;;;;;5094614;28;20507;-75
2022/05/31 13:24:30;;;;;;;0.30;0.30;;;18.10;82.60;;;;;;5094388;28;20040;-76
2022/05/31 13:26:57;;;;;;;;;;;18.10;83.30;;;;;;5095146;28;20046;-71
2022/05/31 13:29:23;;;;;;;0.30;0.30;;;17.90;82.50;;;;;;5094375;28;19920;-72
2022/05/31 13:32:00;;;;;;;0.30;0.30;;;17.90;83.40;;;;;;5094426;28;20044;-74
2022/05/31 13:34:30;;;;;;;0.30;0.30;;;17.90;83.40;;;;;;5094861;28;20052;-71
2022/05/31 13:36:58;;;;;;;0.30;0.30;;;17.90;84.10;;;;;;5094661;28;20091;-72
2022/05/31 13:39:25;;;;;;;0.30;0.30;;;17.90;81.10;;;;;;5094266;28;20086;-74
2022/05/31 13:41:58;;;;;;;0.73;0.73;;;17.80;81.10;;;;;;5094083;28;20048;-73
2022/05/31 13:44:31;;;;;;;0.30;0.30;;;18.00;81.90;;;;;;5093645;28;20051;-71
2022/05/31 13:47:05;;;;;;;0.38;0.38;;;18.20;81.30;;;;;;5094246;28;20079;-73
2022/05/31 13:49:45;;;;;;;0.30;0.30;;;18.50;83.60;;;;;;5094043;28;20047;-73
2022/05/31 13:52:24;;;;;;;0.40;0.40;;;18.70;79.10;;;;;;5094142;28;20043;-71